createdAt,value
2023-05-11T00:00:17.966Z,16.30
2023-05-11T00:03:03.963Z,16.20
2023-05-11T00:05:49.496Z,16.10
2023-05-11T00:08:34.856Z,16.20
2023-05-11T00:11:21.107Z,16.00
2023-05-11T00:14:06.577Z,16.00
2023-05-11T00:16:52.210Z,16.10
2023-05-11T00:19:38.024Z,16.10
2023-05-11T00:22:23.268Z,16.00
2023-05-11T00:25:09.242Z,16.00
2023-05-11T00:27:54.541Z,16.00
2023-05-11T00:30:40.506Z,16.00
2023-05-11T00:33:26.346Z,16.00
2023-05-11T00:36:11.785Z,16.00
2023-05-11T00:38:57.222Z,16.00
2023-05-11T00:41:42.800Z,16.00
2023-05-11T00:44:28.536Z,16.10
2023-05-11T00:47:14.322Z,16.00
2023-05-11T00:49:59.745Z,16.10
2023-05-11T00:52:45.352Z,16.10
2023-05-11T00:55:30.853Z,16.20
2023-05-11T00:58:16.823Z,16.00
2023-05-11T01:01:02.597Z,16.00
2023-05-11T01:03:48.107Z,16.00
2023-05-11T01:06:36.836Z,16.10
2023-05-11T01:09:38.205Z,16.00
2023-05-11T01:12:43.421Z,16.00
2023-05-11T01:15:36.935Z,16.00
2023-05-11T01:18:35.006Z,16.10
2023-05-11T01:21:30.188Z,16.10
2023-05-11T01:24:34.143Z,16.20
2023-05-11T01:27:22.893Z,16.10
2023-05-11T01:30:27.330Z,16.20
2023-05-11T01:33:14.244Z,16.20
2023-05-11T01:36:03.789Z,16.20
2023-05-11T01:38:51.250Z,16.20
2023-05-11T01:41:38.117Z,16.20
2023-05-11T01:44:25.793Z,16.20
2023-05-11T01:47:12.691Z,16.10
2023-05-11T01:49:59.068Z,16.10
2023-05-11T01:52:46.310Z,16.10
2023-05-11T01:55:34.231Z,16.10
2023-05-11T01:58:21.312Z,16.10
2023-05-11T02:01:08.743Z,16.10
2023-05-11T02:03:54.364Z,15.10
2023-05-11T02:06:41.088Z,16.00
2023-05-11T02:09:26.713Z,16.00
2023-05-11T02:12:13.185Z,16.00
2023-05-11T02:14:59.894Z,15.90
2023-05-11T02:17:46.034Z,15.90
2023-05-11T02:20:32.994Z,16.00
2023-05-11T02:23:19.480Z,15.90
2023-05-11T02:26:06.175Z,15.90
2023-05-11T02:28:51.638Z,15.90
2023-05-11T02:31:42.053Z,16.00
2023-05-11T02:34:32.942Z,16.00
2023-05-11T02:37:20.883Z,16.00
2023-05-11T02:40:09.446Z,16.00
2023-05-11T02:42:58.620Z,15.90
2023-05-11T02:45:46.340Z,15.90
2023-05-11T02:48:34.096Z,15.80
2023-05-11T02:51:22.300Z,15.90
2023-05-11T02:54:10.892Z,15.90
2023-05-11T02:57:00.080Z,15.90
2023-05-11T02:59:45.960Z,16.00
2023-05-11T03:02:32.323Z,16.00
2023-05-11T03:05:17.997Z,16.10
2023-05-11T03:08:05.462Z,16.10
2023-05-11T03:10:52.542Z,16.10
2023-05-11T03:13:38.483Z,16.00
2023-05-11T03:16:24.713Z,16.00
2023-05-11T03:19:10.163Z,16.10
2023-05-11T03:21:57.456Z,15.90
2023-05-11T03:24:44.339Z,15.80
2023-05-11T03:27:30.031Z,15.80
2023-05-11T03:30:16.932Z,15.80
2023-05-11T03:33:06.623Z,15.70
2023-05-11T03:35:53.601Z,15.90
2023-05-11T03:38:41.354Z,15.90
2023-05-11T03:41:32.111Z,15.70
2023-05-11T03:44:20.756Z,15.70
2023-05-11T03:47:07.800Z,15.80
2023-05-11T03:49:53.662Z,15.90
2023-05-11T03:52:39.039Z,15.80
2023-05-11T03:55:24.525Z,15.80
2023-05-11T03:58:10.250Z,15.80
2023-05-11T04:00:55.974Z,15.80
2023-05-11T04:03:50.440Z,15.70
2023-05-11T04:06:36.353Z,15.80
2023-05-11T04:09:29.860Z,15.80
2023-05-11T04:12:15.493Z,17.30
2023-05-11T04:15:01.293Z,15.80
2023-05-11T04:17:46.995Z,15.80
2023-05-11T04:20:32.658Z,15.80
2023-05-11T04:23:18.204Z,15.70
2023-05-11T04:26:03.881Z,15.70
2023-05-11T04:28:49.525Z,15.80
2023-05-11T04:31:35.172Z,15.90
2023-05-11T04:34:22.846Z,15.90
2023-05-11T04:37:08.545Z,15.90
2023-05-11T04:39:56.499Z,15.90
2023-05-11T04:42:42.146Z,16.00
2023-05-11T04:45:32.879Z,16.00
2023-05-11T04:48:20.713Z,16.10
2023-05-11T04:51:06.827Z,16.00
2023-05-11T04:53:57.633Z,16.00
2023-05-11T04:56:43.456Z,15.90
2023-05-11T04:59:29.055Z,15.70
2023-05-11T05:02:14.751Z,15.70
2023-05-11T05:05:01.011Z,15.60
2023-05-11T05:07:46.334Z,15.60
2023-05-11T05:10:32.159Z,15.70
2023-05-11T05:13:17.855Z,15.80
2023-05-11T05:16:03.406Z,15.80
2023-05-11T05:18:48.836Z,15.80
2023-05-11T05:21:35.910Z,15.80
2023-05-11T05:24:22.075Z,15.80
2023-05-11T05:27:07.645Z,15.90
2023-05-11T05:29:53.853Z,15.90
2023-05-11T05:32:41.666Z,15.90
2023-05-11T05:35:28.301Z,15.90
2023-05-11T05:38:14.457Z,15.90
2023-05-11T05:41:00.794Z,16.00
2023-05-11T05:43:50.064Z,15.90
2023-05-11T05:46:35.444Z,15.90
2023-05-11T05:49:21.338Z,15.90
2023-05-11T05:52:07.316Z,15.80
2023-05-11T05:54:53.107Z,15.90
2023-05-11T05:57:38.812Z,15.80
2023-05-11T06:00:24.633Z,15.90
2023-05-11T06:03:18.995Z,16.20
2023-05-11T06:06:04.645Z,16.70
2023-05-11T06:08:50.359Z,17.00
2023-05-11T06:11:35.955Z,17.20
2023-05-11T06:14:27.733Z,17.40
2023-05-11T06:17:13.603Z,17.60
2023-05-11T06:19:59.375Z,17.70
2023-05-11T06:22:47.484Z,17.80
2023-05-11T06:25:34.387Z,17.90
2023-05-11T06:28:22.928Z,18.00
2023-05-11T06:31:08.938Z,18.10
2023-05-11T06:33:57.513Z,18.10
2023-05-11T06:36:54.589Z,18.20
2023-05-11T06:39:48.718Z,18.20
2023-05-11T06:42:38.158Z,18.30
2023-05-11T06:45:28.012Z,18.30
2023-05-11T06:48:13.949Z,18.40
2023-05-11T06:50:59.856Z,18.40
2023-05-11T06:53:45.625Z,18.40
2023-05-11T06:56:31.966Z,18.50
2023-05-11T06:59:17.460Z,18.50
2023-05-11T07:02:03.091Z,18.50
2023-05-11T07:04:48.870Z,18.50
2023-05-11T07:07:34.351Z,18.60
2023-05-11T07:10:20.078Z,18.60
2023-05-11T07:13:05.785Z,18.60
2023-05-11T07:15:51.520Z,18.60
2023-05-11T07:18:37.027Z,18.60
2023-05-11T07:21:22.654Z,21.50
2023-05-11T07:24:08.116Z,18.70
2023-05-11T07:26:53.748Z,18.70
2023-05-11T07:29:39.170Z,18.70
2023-05-11T07:32:24.866Z,18.80
2023-05-11T07:35:10.819Z,18.70
2023-05-11T07:37:56.522Z,18.80
2023-05-11T07:40:42.118Z,18.80
2023-05-11T07:43:27.976Z,17.20
2023-05-11T07:46:13.527Z,18.80
2023-05-11T07:49:13.719Z,18.80
2023-05-11T07:52:01.171Z,18.90
2023-05-11T07:54:46.921Z,18.90
2023-05-11T07:57:32.515Z,18.90
2023-05-11T08:00:19.280Z,18.90
2023-05-11T08:03:05.025Z,18.90
2023-05-11T08:05:51.171Z,19.00
2023-05-11T08:08:36.908Z,19.10
2023-05-11T08:11:22.578Z,19.10
2023-05-11T08:14:08.217Z,19.10
2023-05-11T08:16:53.915Z,19.10
2023-05-11T08:19:39.690Z,19.10
2023-05-11T08:22:27.424Z,19.10
2023-05-11T08:25:13.807Z,19.10
2023-05-11T08:27:59.215Z,19.10
2023-05-11T08:30:45.037Z,19.10
2023-05-11T08:36:18.923Z,19.20
2023-05-11T08:39:04.386Z,19.20
2023-05-11T08:41:52.978Z,19.20
2023-05-11T08:44:39.262Z,19.20
2023-05-11T08:47:25.051Z,19.20
2023-05-11T08:50:10.473Z,19.20
2023-05-11T08:52:55.911Z,19.20
2023-05-11T08:55:42.761Z,19.30
2023-05-11T08:58:28.309Z,19.30
2023-05-11T09:01:14.777Z,19.30
2023-05-11T09:04:00.549Z,19.30
2023-05-11T09:06:46.277Z,19.30
2023-05-11T09:09:31.972Z,19.30
2023-05-11T09:12:17.373Z,19.30
2023-05-11T09:15:03.497Z,19.30
2023-05-11T09:17:49.125Z,19.30
2023-05-11T09:20:34.795Z,19.30
2023-05-11T09:23:24.951Z,19.40
2023-05-11T09:26:29.884Z,19.30
2023-05-11T09:29:19.386Z,19.40
2023-05-11T09:32:05.120Z,19.30
2023-05-11T09:34:50.692Z,19.40
2023-05-11T09:37:36.495Z,19.40
2023-05-11T09:40:27.382Z,19.40
2023-05-11T09:43:16.512Z,19.40
2023-05-11T09:46:07.841Z,23.30
2023-05-11T09:48:58.406Z,19.40
2023-05-11T09:51:44.056Z,19.40
2023-05-11T09:54:29.630Z,19.40
2023-05-11T09:57:24.434Z,19.40
2023-05-11T10:00:14.507Z,19.40
2023-05-11T10:03:04.571Z,18.90
2023-05-11T10:05:57.386Z,19.40
2023-05-11T10:08:43.032Z,19.40
2023-05-11T10:11:28.593Z,19.40
2023-05-11T10:14:14.821Z,19.50
2023-05-11T10:17:01.412Z,19.50
2023-05-11T10:19:47.750Z,19.50
2023-05-11T10:22:33.676Z,19.40
2023-05-11T10:25:22.916Z,19.50
2023-05-11T10:28:08.930Z,19.50
2023-05-11T10:30:54.870Z,19.50
2023-05-11T10:33:41.771Z,19.50
2023-05-11T10:36:28.236Z,19.50
2023-05-11T10:39:13.798Z,19.50
2023-05-11T10:42:04.832Z,19.50
2023-05-11T10:44:57.126Z,19.60
2023-05-11T10:47:49.146Z,19.60
2023-05-11T10:50:54.842Z,19.60
2023-05-11T10:53:59.546Z,19.60
2023-05-11T10:57:03.791Z,19.70
2023-05-11T11:00:10.670Z,19.70
2023-05-11T11:03:08.580Z,19.70
2023-05-11T11:06:00.778Z,22.10
2023-05-11T11:08:56.872Z,19.80
2023-05-11T11:11:46.092Z,19.80
2023-05-11T11:14:51.456Z,19.80
2023-05-11T11:17:36.956Z,19.80
2023-05-11T11:20:42.488Z,19.90
2023-05-11T11:23:41.573Z,19.80
2023-05-11T11:26:45.663Z,19.80
2023-05-11T11:29:33.310Z,19.80
2023-05-11T11:32:22.724Z,19.80
2023-05-11T11:35:28.512Z,19.80
2023-05-11T11:38:13.775Z,19.80
2023-05-11T11:40:59.362Z,19.80
2023-05-11T11:43:46.165Z,19.80
2023-05-11T11:46:31.601Z,19.80
2023-05-11T11:49:17.004Z,19.90
2023-05-11T11:52:04.141Z,19.80
2023-05-11T11:54:49.684Z,19.90
2023-05-11T11:57:35.375Z,19.90
2023-05-11T12:00:21.379Z,19.90
2023-05-11T12:03:07.503Z,19.90
2023-05-11T12:05:55.551Z,20.00
2023-05-11T12:08:41.410Z,20.00
2023-05-11T12:11:29.160Z,20.00
2023-05-11T12:14:15.421Z,20.10
2023-05-11T12:17:01.945Z,20.10
2023-05-11T12:19:47.618Z,20.10
2023-05-11T12:22:33.473Z,20.10
2023-05-11T12:25:19.804Z,20.20
2023-05-11T12:28:05.310Z,20.20
2023-05-11T12:30:55.062Z,20.20
2023-05-11T12:33:46.730Z,20.20
2023-05-11T12:36:33.407Z,20.20
2023-05-11T12:39:21.322Z,20.20
2023-05-11T12:42:06.775Z,20.20
2023-05-11T12:44:52.737Z,20.30
2023-05-11T12:47:38.018Z,20.20
2023-05-11T12:50:23.792Z,20.20
2023-05-11T12:53:16.728Z,20.30
2023-05-11T12:56:02.101Z,20.30
2023-05-11T12:58:47.923Z,20.30
2023-05-11T13:01:33.690Z,20.30
2023-05-11T13:04:27.926Z,20.40
2023-05-11T13:07:14.320Z,20.40
2023-05-11T13:10:00.507Z,20.40
2023-05-11T13:12:50.457Z,20.40
2023-05-11T13:15:49.820Z,20.40
2023-05-11T13:18:35.676Z,20.40
2023-05-11T13:21:21.406Z,20.50
2023-05-11T13:24:07.124Z,20.40
2023-05-11T13:26:53.408Z,20.40
2023-05-11T13:29:38.824Z,20.50
2023-05-11T13:32:24.476Z,20.50
2023-05-11T13:35:10.142Z,20.60
2023-05-11T13:37:56.310Z,20.60
2023-05-11T13:40:41.954Z,20.60
2023-05-11T13:43:27.942Z,20.60
2023-05-11T13:46:13.281Z,20.70
2023-05-11T13:49:00.431Z,20.70
2023-05-11T13:51:46.136Z,20.70
2023-05-11T13:54:31.943Z,20.70
2023-05-11T13:57:17.553Z,20.70
2023-05-11T14:00:03.487Z,20.70
2023-05-11T14:05:43.423Z,20.70
2023-05-11T14:08:29.278Z,20.70
2023-05-11T14:11:15.056Z,20.70
2023-05-11T14:14:00.935Z,20.80
2023-05-11T14:16:46.290Z,20.80
2023-05-11T14:19:31.938Z,20.80
2023-05-11T14:22:17.740Z,20.70
2023-05-11T14:25:03.309Z,20.80
2023-05-11T14:27:54.626Z,20.80
2023-05-11T14:30:40.589Z,20.80
2023-05-11T14:33:26.347Z,20.80
2023-05-11T14:36:13.008Z,20.80
2023-05-11T14:38:58.503Z,20.80
2023-05-11T14:41:44.157Z,20.80
2023-05-11T14:44:29.897Z,20.80
2023-05-11T14:47:15.658Z,20.80
2023-05-11T14:50:01.123Z,20.80
2023-05-11T14:52:47.192Z,20.80
2023-05-11T14:55:32.696Z,20.80
2023-05-11T14:58:18.024Z,20.70
2023-05-11T15:01:05.019Z,20.70
2023-05-11T15:03:50.420Z,20.80
2023-05-11T15:06:36.222Z,20.80
2023-05-11T15:09:22.029Z,20.70
2023-05-11T15:12:07.907Z,20.70
2023-05-11T15:14:53.679Z,20.70
2023-05-11T15:17:39.171Z,20.70
2023-05-11T15:20:24.865Z,20.70
2023-05-11T15:23:10.303Z,20.70
2023-05-11T15:25:58.583Z,20.70
2023-05-11T15:28:44.591Z,20.70
2023-05-11T15:31:30.193Z,20.70
2023-05-11T15:34:16.292Z,20.70
2023-05-11T15:37:01.995Z,20.70
2023-05-11T15:39:47.772Z,20.70
2023-05-11T15:42:33.941Z,20.70
2023-05-11T15:45:20.007Z,20.70
2023-05-11T15:48:05.539Z,20.70
2023-05-11T15:50:50.995Z,20.80
2023-05-11T15:53:36.901Z,20.70
2023-05-11T15:56:22.759Z,20.70
2023-05-11T15:59:09.238Z,20.70
2023-05-11T16:01:54.651Z,20.70
2023-05-11T16:04:40.111Z,22.30
2023-05-11T16:07:27.164Z,20.70
2023-05-11T16:10:12.853Z,20.80
2023-05-11T16:12:58.980Z,20.70
2023-05-11T16:15:44.606Z,20.70
2023-05-11T16:18:30.356Z,20.70
2023-05-11T16:21:15.723Z,20.70
2023-05-11T16:24:01.406Z,20.70
2023-05-11T16:26:46.944Z,20.70
2023-05-11T16:29:32.803Z,20.70
2023-05-11T16:32:20.260Z,20.60
2023-05-11T16:35:06.164Z,20.70
2023-05-11T16:37:51.810Z,20.70
2023-05-11T16:40:37.516Z,20.70
2023-05-11T16:43:23.280Z,20.70
2023-05-11T16:46:09.523Z,20.70
2023-05-11T16:48:56.675Z,20.70
2023-05-11T16:51:43.425Z,20.70
2023-05-11T16:54:29.175Z,20.70
2023-05-11T16:57:14.728Z,20.70
2023-05-11T17:00:00.263Z,20.70
2023-05-11T17:02:46.358Z,20.70
2023-05-11T17:05:32.148Z,20.70
2023-05-11T17:08:18.094Z,20.70
2023-05-11T17:11:03.996Z,20.70
2023-05-11T17:13:49.368Z,20.70
2023-05-11T17:16:34.853Z,20.70
2023-05-11T17:19:20.633Z,20.70
2023-05-11T17:22:06.909Z,20.60
2023-05-11T17:24:52.513Z,20.60
2023-05-11T17:27:38.061Z,20.60
2023-05-11T17:30:29.992Z,20.70
2023-05-11T17:33:23.446Z,20.60
2023-05-11T17:36:09.634Z,20.70
2023-05-11T17:38:55.394Z,20.70
2023-05-11T17:41:40.975Z,20.70
2023-05-11T17:44:27.065Z,20.70
2023-05-11T17:47:12.682Z,20.70
2023-05-11T17:49:58.163Z,20.70
2023-05-11T17:52:43.919Z,20.80
2023-05-11T17:55:29.577Z,20.70
2023-05-11T17:58:15.287Z,20.70
2023-05-11T18:01:06.526Z,20.70
2023-05-11T18:03:52.411Z,20.70
2023-05-11T18:06:37.789Z,20.70
2023-05-11T18:09:23.681Z,20.70
2023-05-11T18:12:09.534Z,20.70
2023-05-11T18:14:54.955Z,20.70
2023-05-11T18:17:43.854Z,20.70
2023-05-11T18:20:29.193Z,20.70
2023-05-11T18:23:14.970Z,20.60
2023-05-11T18:26:00.648Z,20.60
2023-05-11T18:28:48.940Z,20.60
2023-05-11T18:31:34.785Z,20.60
2023-05-11T18:34:20.495Z,20.60
2023-05-11T18:37:06.092Z,20.60
2023-05-11T18:39:51.817Z,20.50
2023-05-11T18:42:37.487Z,20.40
2023-05-11T18:45:23.341Z,20.40
2023-05-11T18:48:09.273Z,20.30
2023-05-11T18:50:55.222Z,20.30
2023-05-11T18:53:41.446Z,20.30
2023-05-11T18:56:26.712Z,20.20
2023-05-11T18:59:12.318Z,20.20
2023-05-11T19:01:58.557Z,20.20
2023-05-11T19:04:44.224Z,20.20
2023-05-11T19:07:30.169Z,20.10
2023-05-11T19:10:16.668Z,20.10
2023-05-11T19:13:02.592Z,20.10
2023-05-11T19:15:48.524Z,20.10
2023-05-11T19:18:35.672Z,20.10
2023-05-11T19:21:21.014Z,20.10
2023-05-11T19:24:07.377Z,20.10
2023-05-11T19:27:05.857Z,20.10
2023-05-11T19:29:53.226Z,20.10
2023-05-11T19:32:39.031Z,20.10
2023-05-11T19:35:24.409Z,20.10
2023-05-11T19:38:10.149Z,20.10
2023-05-11T19:40:55.620Z,20.10
2023-05-11T19:43:41.923Z,20.10
2023-05-11T19:46:27.525Z,20.10
2023-05-11T19:49:13.698Z,20.10
2023-05-11T19:51:59.254Z,20.00
2023-05-11T19:54:44.518Z,20.00
2023-05-11T19:57:31.325Z,20.00
2023-05-11T20:00:18.276Z,20.00
2023-05-11T20:03:04.066Z,20.00
2023-05-11T20:05:49.932Z,20.00
2023-05-11T20:08:35.303Z,20.00
2023-05-11T20:11:22.183Z,20.00
2023-05-11T20:14:07.748Z,20.00
2023-05-11T20:16:53.433Z,20.00
2023-05-11T20:19:39.008Z,20.00
2023-05-11T20:22:24.570Z,20.00
2023-05-11T20:25:17.790Z,20.00
2023-05-11T20:28:04.750Z,20.00
2023-05-11T20:30:50.480Z,20.00
2023-05-11T20:36:23.891Z,20.00
2023-05-11T20:39:09.449Z,20.00
2023-05-11T20:41:57.453Z,20.00
2023-05-11T20:44:43.090Z,22.20
2023-05-11T20:47:28.638Z,19.90
2023-05-11T20:50:15.028Z,19.50
2023-05-11T20:53:00.456Z,19.00
2023-05-11T20:55:46.465Z,18.70
2023-05-11T20:58:32.137Z,18.40
2023-05-11T21:01:17.605Z,18.20
2023-05-11T21:04:03.293Z,18.10
2023-05-11T21:06:48.902Z,17.90
2023-05-11T21:09:34.815Z,17.80
2023-05-11T21:12:20.109Z,17.80
2023-05-11T21:15:06.925Z,17.70
2023-05-11T21:17:52.182Z,17.60
2023-05-11T21:20:37.644Z,17.60
2023-05-11T21:23:23.501Z,17.50
2023-05-11T21:26:09.074Z,17.40
2023-05-11T21:28:54.822Z,17.40
2023-05-11T21:31:40.265Z,17.30
2023-05-11T21:34:25.981Z,17.20
2023-05-11T21:37:14.659Z,17.20
2023-05-11T21:40:00.441Z,17.20
2023-05-11T21:42:46.293Z,17.30
2023-05-11T21:45:32.036Z,17.20
2023-05-11T21:48:17.623Z,17.30
2023-05-11T21:51:03.916Z,17.20
2023-05-11T21:53:49.383Z,17.10
2023-05-11T21:56:35.053Z,17.10
2023-05-11T21:59:21.172Z,17.00
2023-05-11T22:02:06.990Z,17.00
2023-05-11T22:04:52.682Z,16.90
2023-05-11T22:07:38.098Z,16.80
2023-05-11T22:10:24.592Z,16.90
2023-05-11T22:13:10.466Z,16.80
2023-05-11T22:15:56.052Z,16.80
2023-05-11T22:18:41.562Z,16.80
2023-05-11T22:21:27.891Z,16.80
2023-05-11T22:24:13.711Z,16.70
2023-05-11T22:26:59.410Z,16.70
2023-05-11T22:29:44.859Z,16.70
2023-05-11T22:32:31.552Z,16.70
2023-05-11T22:35:18.335Z,16.70
2023-05-11T22:38:04.374Z,16.70
2023-05-11T22:40:50.060Z,16.70
2023-05-11T22:43:36.058Z,16.70
2023-05-11T22:46:21.728Z,16.70
2023-05-11T22:49:08.349Z,16.70
2023-05-11T22:51:58.478Z,16.50
2023-05-11T22:54:44.209Z,16.50
2023-05-11T22:57:29.873Z,16.50
2023-05-11T23:00:15.976Z,16.50
2023-05-11T23:03:01.931Z,16.50
2023-05-11T23:05:48.151Z,16.50
2023-05-11T23:08:33.559Z,16.40
2023-05-11T23:11:18.972Z,16.40
2023-05-11T23:14:04.756Z,16.30
2023-05-11T23:16:50.246Z,16.20
2023-05-11T23:19:36.119Z,16.20
2023-05-11T23:22:21.638Z,16.10
2023-05-11T23:25:07.554Z,16.10
2023-05-11T23:27:54.841Z,16.10
2023-05-11T23:30:40.629Z,16.00
2023-05-11T23:33:27.168Z,16.00
2023-05-11T23:36:12.879Z,15.90
2023-05-11T23:38:58.661Z,15.90
2023-05-11T23:41:44.126Z,15.80
2023-05-11T23:44:29.946Z,15.90
2023-05-11T23:47:15.596Z,15.90
2023-05-11T23:50:01.164Z,15.90
2023-05-11T23:52:46.704Z,16.00
2023-05-11T23:55:32.379Z,15.90
2023-05-11T23:58:17.992Z,16.00
